• Join FlightAware (Why Join?)
  • Login
  • US Flag 
01:17PM EDT


 

Airport Tracker/Info


-or-


 

Live Flight TrackerFlight Track Log ✈ UAL4693 ✈ 25-Apr-2013 ✈ KSTL - KIAH

Flight Track Log - Related Links

Times and Time Zones

All times are in EDT time to prevent confusion due to time zone crossing. See the UAL4693 flight status page for this flight to view local times or setup timezone preferences in your user account.

Time Position Orientation Groundspeed Altitude Reporting Facility
EDT Latitude Longitude Course Direction KTS MPH feet Rate Location/Type
11:21AM 38.7628 -90.3719 218° Southwest 158 182 1,800  Level FAA TRACON SMA TRACON (SMA)
11:22AM 38.7719 -90.3886 305° West 176 203 2,400 2,100 Climbing FAA TRACON SMA TRACON (SMA)
11:22AM 38.7806 -90.4075 300° West 196 226 3,200 2,340 Climbing FAA TRACON SMA TRACON (SMA)
11:22AM 38.7794 -90.4372 267° West 227 261 4,000 2,820 Climbing FAA TRACON SMA TRACON (SMA)
11:23AM 38.7686 -90.4594 238° Southwest 239 275 5,100 3,420 Climbing FAA TRACON SMA TRACON (SMA)
11:23AM 38.7561 -90.4800 232° Southwest 240 276 6,300 3,300 Climbing FAA TRACON SMA TRACON (SMA)
11:23AM 38.7336 -90.4961 209° Southwest 246 283 7,300 2,880 Climbing FAA TRACON SMA TRACON (SMA)
11:24AM 38.7111 -90.5042 196° South 264 304 8,200 2,700 Climbing FAA TRACON SMA TRACON (SMA)
11:24AM 38.6897 -90.5133 198° South 267 307 9,100 2,460 Climbing FAA TRACON SMA TRACON (SMA)
11:24AM 38.6614 -90.5250 198° South 275 316 9,900 1,920 Climbing FAA TRACON SMA TRACON (SMA)
11:25AM 38.4469 -90.4842 222° Southwest  Level FlightAware Approximate
11:25AM 38.6378 -90.5344 197° South 286 329 10,400  Level FAA TRACON SMA TRACON (SMA)
11:25AM 38.6122 -90.5453 198° South 305 351 10,600 720 Climbing FAA TRACON SMA TRACON (SMA)
11:25AM 38.5778 -90.5583 197° South 333 383 10,900 1,260 Climbing FAA TRACON SMA TRACON (SMA)
11:26AM 38.3706 -90.5628 218° Southwest  Level FlightAware Approximate
11:26AM 38.5492 -90.5697 197° South 348 400 11,500  Level FAA TRACON SMA TRACON (SMA)
11:26AM 38.5206 -90.5811 197° South 353 406 12,100 2,220 Climbing FAA TRACON SMA TRACON (SMA)
11:26AM 38.4828 -90.5897 190° South 357 411 13,000 2,460 Climbing FAA TRACON SMA TRACON (SMA)
11:27AM 38.4511 -90.5875 177° South 366 421 13,700 1,920 Climbing FAA TRACON SMA TRACON (SMA)
11:27AM 38.4194 -90.5842 175° South 371 427 14,300 1,440 Climbing FAA TRACON SMA TRACON (SMA)
11:27AM 38.3794 -90.5789 174° South 376 433 14,700 900 Climbing FAA TRACON SMA TRACON (SMA)
11:28AM 38.3458 -90.5744 174° South 385 443 14,900 600 Climbing FAA TRACON SMA TRACON (SMA)
11:28AM 38.3031 -90.5708 176° South 400 460 15,100 1,200 Climbing FAA TRACON SMA TRACON (SMA)
11:28AM 38.2689 -90.5683 177° South 404 465 15,700 1,800 Climbing FAA TRACON SMA TRACON (SMA)
11:29AM 38.2339 -90.5625 173° South 408 470 16,300 2,100 Climbing FAA TRACON SMA TRACON (SMA)
11:29AM 38.1911 -90.5569 174° South 402 463 17,200 2,040 Climbing FAA TRACON SMA TRACON (SMA)
11:29AM 38.1578 -90.5553 178° South 395 455 17,700 1,680 Climbing FAA TRACON SMA TRACON (SMA)
11:30AM 38.1253 -90.5592 185° South 385 443 18,300 1,860 Climbing FAA TRACON SMA TRACON (SMA)
11:30AM 38.0839 -90.5600 181° South 383 441 19,000 1,800 Climbing FAA TRACON SMA TRACON (SMA)
11:30AM 38.0514 -90.5636 185° South 382 440 19,500 1,500 Climbing FAA TRACON SMA TRACON (SMA)
11:31AM 38.0186 -90.5667 184° South 386 444 20,000 1,620 Climbing FAA TRACON SMA TRACON (SMA)
11:31AM 37.9769 -90.5714 185° South 388 447 20,600 1,620 Climbing FAA TRACON SMA TRACON (SMA)
11:31AM 37.9425 -90.5703 179° South 395 455 21,100 1,380 Climbing FAA TRACON SMA TRACON (SMA)
11:32AM 37.9092 -90.5744 186° South 395 455 21,500 1,380 Climbing FAA TRACON SMA TRACON (SMA)
11:32AM 37.8750 -90.5753 181° South 397 457 22,000 1,440 Climbing FAA TRACON SMA TRACON (SMA)
11:32AM 37.8325 -90.5811 186° South 400 460 22,500 1,140 Climbing FAA TRACON SMA TRACON (SMA)
11:33AM 37.7972 -90.5806 179° South 405 466 22,800 900 Climbing FAA TRACON SMA TRACON (SMA)
11:33AM 37.7617 -90.5797 179° South 410 472 23,100 1,260 Climbing FAA TRACON SMA TRACON (SMA)
11:34AM 37.6753 -90.6372 208° Southwest 410 472 24,400 1,560 Climbing Kansas City Center
11:35AM 37.5617 -90.6422 182° South 411 473 26,200 1,860 Climbing Kansas City Center
11:36AM 37.4275 -90.6381 179° South 405 466 28,300 1,740 Climbing Kansas City Center
11:37AM 37.3328 -90.6311 177° South 397 457 29,900 1,560 Climbing Kansas City Center
11:37AM 37.2669 -90.6383 185° South 398 458 30,800 1,200 Climbing Memphis Center
11:38AM 37.1794 -90.6822 202° Southwest 366 421 31,800 600 Climbing Memphis Center
11:39AM 37.0917 -90.7392 207° Southwest 358 412 32,000 60 Climbing Memphis Center
11:40AM 36.9958 -90.7958 205° Southwest 371 427 32,000  Level Memphis Center
11:41AM 36.8914 -90.8628 207° Southwest 400 460 32,000  Level Memphis Center
11:42AM 36.7847 -90.9269 206° Southwest 420 483 32,000  Level Memphis Center
11:43AM 36.6781 -90.9933 207° Southwest 425 489 32,100 660 Climbing Memphis Center
11:44AM 36.5778 -91.0519 205° Southwest 425 489 33,400 900 Climbing Memphis Center
11:45AM 36.4817 -91.1131 207° Southwest 410 472 34,000 780 Climbing Memphis Center
11:46AM 36.3833 -91.1717 206° Southwest 397 457 35,000 900 Climbing Memphis Center
11:47AM 36.2911 -91.2272 206° Southwest 386 444 35,800 480 Climbing Memphis Center
11:48AM 36.1947 -91.2828 205° Southwest 386 444 36,000 60 Climbing Memphis Center
11:49AM 36.0964 -91.3408 206° Southwest 386 444 36,000  Level Memphis Center
11:50AM 35.9936 -91.4011 205° Southwest 399 459 36,000  Level Memphis Center
11:51AM 35.8867 -91.4717 208° Southwest 399 459 36,000  Level Memphis Center
11:52AM 35.7819 -91.5317 205° Southwest 410 472 36,000  Level Memphis Center
11:53AM 35.6814 -91.5942 207° Southwest 410 472 36,000  Level Memphis Center
11:54AM 35.5889 -91.6489 206° Southwest 410 472 36,000  Level Memphis Center
11:55AM 35.4839 -91.7111 206° Southwest 409 471 36,000  Level Memphis Center
11:56AM 35.3811 -91.7731 206° Southwest 409 471 36,000  Level Memphis Center
11:57AM 35.2783 -91.8322 205° Southwest 398 458 36,000  Level Memphis Center
11:58AM 35.1817 -91.8889 206° Southwest 404 465 36,000  Level Memphis Center
11:59AM 35.0764 -91.9506 206° Southwest 410 472 36,000  Level Memphis Center
12:00PM 34.9756 -92.0119 207° Southwest 410 472 36,000  Level Memphis Center
12:01PM 34.8706 -92.0681 204° Southwest 405 466 36,000  Level Memphis Center
12:02PM 34.7694 -92.1344 208° Southwest 405 466 36,000  Level Memphis Center
12:03PM 34.6683 -92.1928 205° Southwest 411 473 36,000  Level Memphis Center
12:04PM 34.5431 -92.2128 187° South 430 495 36,000  Level Memphis Center
12:05PM 34.4217 -92.2356 189° South 440 506 36,000  Level Memphis Center
12:06PM 34.2961 -92.2553 187° South 445 512 36,000  Level Memphis Center
12:07PM 34.1747 -92.2778 189° South 450 518 36,000  Level Memphis Center
12:08PM 34.0553 -92.3028 190° South 450 518 36,000  Level Memphis Center
12:10PM 33.8267 -92.3406 188° South 453 521 36,000  Level Fort Worth Center
12:11PM 33.7044 -92.3628 189° South 453 521 36,000  Level Fort Worth Center
12:12PM 33.5803 -92.3847 188° South 453 521 36,000  Level Fort Worth Center
12:13PM 33.4622 -92.4064 189° South 453 521 36,000  Level Fort Worth Center
12:14PM 33.3378 -92.4283 188° South 453 521 36,000  Level Fort Worth Center
12:15PM 33.2178 -92.4525 190° South 448 516 36,000  Level Fort Worth Center
12:16PM 33.0933 -92.4744 188° South 448 516 36,000  Level Fort Worth Center
12:17PM 32.9689 -92.4936 187° South 443 510 36,000  Level Fort Worth Center
12:18PM 32.8486 -92.5175 189° South 443 510 36,000  Level Fort Worth Center
12:20PM 32.6094 -92.5631 189° South 443 510 36,000  Level Houston Center
12:21PM 32.4842 -92.5833 188° South 451 519 36,000  Level Houston Center
12:22PM 32.3608 -92.6056 189° South 450 518 36,000  Level Houston Center
12:23PM 32.2375 -92.6267 188° South 448 516 36,000  Level Houston Center
12:24PM 32.1147 -92.6500 189° South 448 516 36,000  Level Houston Center
12:25PM 31.9667 -92.6786 189° South 448 516 36,000  Level Houston Center
12:26PM 31.8783 -92.7658 220° Southwest 414 476 36,000  Level Houston Center
12:27PM 31.7911 -92.8508 220° Southwest 409 471 36,000  Level Houston Center
12:28PM 31.7047 -92.9369 220° Southwest 409 471 36,000  Level Houston Center
12:30PM 31.6172 -93.0211 219° Southwest 408 470 36,000  Level Houston Center
12:31PM 31.5303 -93.1050 219° Southwest 407 468 36,000  Level Houston Center
12:32PM 31.4242 -93.2061 219° Southwest 409 471 36,000  Level Houston Center
12:33PM 31.3400 -93.2881 220° Southwest 409 471 36,000  Level Houston Center
12:34PM 31.2486 -93.3739 219° Southwest 409 471 36,000 -300 Level Houston Center
12:35PM 31.1606 -93.4594 220° Southwest 412 474 35,500 -1,260 Descending Houston Center
12:36PM 31.0739 -93.5411 219° Southwest 405 466 33,400 -2,520 Descending Houston Center
12:37PM 30.9708 -93.6389 219° Southwest 401 461 30,400 -2,640 Descending Houston Center
12:38PM 30.8808 -93.7233 219° Southwest 415 478 28,000 -2,100 Descending Houston Center
12:39PM 30.7867 -93.8119 219° Southwest 435 501 26,100 -2,040 Descending Houston Center
12:40PM 30.6942 -93.8986 219° Southwest 432 497 23,800 -2,520 Descending Houston Center
12:41PM 30.6136 -93.9769 220° Southwest 419 482 21,600 -2,340 Descending Houston Center
12:41PM 30.6044 -93.9839 213° Southwest 422 486 21,400 -2,400 Descending Houston Center
12:42PM 30.5328 -94.0511 219° Southwest 419 482 19,600 -2,760 Descending Houston Center
12:42PM 30.4964 -94.0844 218° Southwest 418 481 18,600 -1,920 Descending Houston Center
12:43PM 30.4442 -94.1333 219° Southwest 419 482 17,700 -1,980 Descending Houston Center
12:43PM 30.4064 -94.1689 219° Southwest 417 480 16,600 -2,580 Descending Houston Center
12:44PM 30.3539 -94.2181 219° Southwest 400 460 15,100 -2,340 Descending Houston Center
12:44PM 30.3228 -94.2469 219° Southwest 396 456 14,200 -2,220 Descending Houston Center
12:45PM 30.2711 -94.2944 218° Southwest 366 421 12,900 -1,740 Descending Houston Center
12:45PM 30.2453 -94.3203 221° Southwest 372 428 12,400 -900 Descending Houston Center
12:46PM 30.2031 -94.3711 226° Southwest 351 404 12,000 -420 Descending Houston Center
12:46PM 30.1919 -94.4114 252° West 354 407 12,000  Level Houston Center
12:47PM 30.1747 -94.4886 256° West 353 406 12,000  Level Houston Center
12:47PM 30.1694 -94.5322 262° West 355 409 12,000  Level Houston Center
12:48PM 30.1567 -94.6044 258° West 364 419 12,000  Level Houston Center
12:48PM 30.1500 -94.6447 259° West 357 411 12,000  Level Houston Center
12:49PM 30.1361 -94.7183 258° West 363 418 12,000 -300 Level Houston Center
12:49PM 30.1264 -94.7800 260° West 360 414 11,700 -1,080 Descending Houston Center
12:50PM 30.1161 -94.8369 258° West 304 350 10,800 -1,380 Descending Houston Center
12:50PM 30.1103 -94.8756 260° West 309 356 10,300 -1,320 Descending Houston Center
12:51PM 30.1058 -94.9275 264° West 274 315 9,500 -1,440 Descending Houston Center
12:51PM 30.1058 -94.9617 270° West 274 315 8,800 -1,680 Descending Houston Center
12:52PM 30.1056 -95.0144 270° West 275 316 7,800 -1,500 Descending Houston Center
12:52PM 30.1064 -95.0500 272° West 276 318 7,300 -1,200 Descending Houston Center
12:53PM 30.1056 -95.1039 269° West 279 321 6,600 -1,080 Descending Houston Center
12:53PM 30.1069 -95.1383 273° West 277 319 6,200 -660 Descending Houston Center
12:54PM 30.1067 -95.1858 270° West 275 316 6,000 -240 Descending Houston Center
12:54PM 30.1072 -95.2436 271° West 276 318 6,000  Level Houston Center
12:55PM 30.1069 -95.2778 269° West 275 316 6,000  Level Houston Center
12:55PM 30.1081 -95.3314 271° West 274 315 6,000  Level Houston Center
12:56PM 30.1067 -95.3669 267° West 276 318 6,000 -420 Level Houston Center
12:56PM 30.1072 -95.4189 271° West 275 316 5,600 -1,800 Descending Houston Center
12:57PM 30.1061 -95.4542 268° West 269 310 4,200 -3,120 Descending Houston Center
12:57PM 30.0839 -95.4939 237° Southwest 276 318 2,400 -2,100 Descending Houston Center
12:58PM 30.0561 -95.5036 197° South 257 296 2,100 -300 Descending Houston Center
12:59PM 30.0261 -95.4861 153° Southeast 243 280 2,100 -240 Level Houston Center
12:59PM 30.0125 -95.4628 124° Southeast 171 197 1,900 -720 Descending Houston Center